• Join FlightAware (Why Join?)
  • Login
  • US Flag 
09:24PM EDT


 

Airport Tracker/Info


-or-


 

Live Flight TrackerFlight Track Log ✈ SWA1729 ✈ 01-May-2013 ✈ KBNA - KHOU

Flight Track Log - Related Links

Times and Time Zones

All times are in EDT time to prevent confusion due to time zone crossing. See the SWA1729 flight status page for this flight to view local times or setup timezone preferences in your user account.

Time Position Orientation Groundspeed Altitude Reporting Facility
EDT Latitude Longitude Course Direction KTS MPH feet Rate Location/Type
07:24PM 36.1000 -86.6833 256° West 160 184 1,500  Level Nashville TRACON
07:25PM 36.0833 -86.7667 256° West 222 255 3,400 1,800 Climbing Nashville TRACON
07:26PM 36.0925 -86.8611 277° West 284 327 5,500 2,640 Climbing Memphis Center
07:28PM 36.0964 -87.0767 271° West 343 395 11,700 3,120 Climbing Memphis Center
07:29PM 36.0972 -87.1922 271° West 349 402 14,900 2,820 Climbing Memphis Center
07:30PM 36.0814 -87.3086 260° West 342 394 17,300 1,860 Climbing Memphis Center
07:31PM 36.0550 -87.4225 254° West 362 417 18,600 1,740 Climbing Memphis Center
07:32PM 36.0078 -87.5422 244° Southwest 389 448 20,900 2,400 Climbing Memphis Center
07:33PM 35.9583 -87.6669 244° Southwest 406 467 23,500 2,220 Climbing Memphis Center
07:34PM 35.9108 -87.7917 245° Southwest 406 467 25,400 1,620 Climbing Memphis Center
07:35PM 35.8614 -87.9186 244° Southwest 411 473 26,800 1,440 Climbing Memphis Center
07:36PM 35.8075 -88.0481 243° Southwest 421 484 28,400 1,500 Climbing Memphis Center
07:37PM 35.7578 -88.1750 244° Southwest 419 482 29,800 1,560 Climbing Memphis Center
07:38PM 35.7036 -88.3092 244° Southwest 419 482 31,600 1,080 Climbing Memphis Center
07:39PM 35.6494 -88.4408 243° Southwest 424 488 32,000 420 Climbing Memphis Center
07:40PM 35.5972 -88.5697 244° Southwest 429 494 32,500 720 Climbing Memphis Center
07:41PM 35.5428 -88.7011 243° Southwest 429 494 33,500 720 Climbing Memphis Center
07:42PM 35.4922 -88.8347 245° Southwest 429 494 34,000 240 Climbing Memphis Center
07:43PM 35.4356 -88.9683 243° Southwest 429 494 34,000  Level Memphis Center
07:44PM 35.3764 -89.1119 243° Southwest 428 493 34,000  Level Memphis Center
07:45PM 35.3214 -89.2475 244° Southwest 434 499 34,000  Level Memphis Center
07:46PM 35.2706 -89.3778 244° Southwest 434 499 34,000  Level Memphis Center
07:47PM 35.2150 -89.5083 243° Southwest 434 499 34,000  Level Memphis Center
07:48PM 35.1639 -89.6383 244° Southwest 428 493 34,000  Level Memphis Center
07:49PM 35.1081 -89.7708 243° Southwest 428 493 34,000  Level Memphis Center
07:50PM 35.0544 -89.9081 245° Southwest 435 501 34,000  Level Memphis Center
07:51PM 34.9819 -90.0250 233° Southwest 440 506 34,000  Level Memphis Center
07:52PM 34.8839 -90.1114 216° Southwest 429 494 34,000  Level Memphis Center
07:53PM 34.7881 -90.1953 216° Southwest 429 494 34,000  Level Memphis Center
07:54PM 34.6944 -90.2814 217° Southwest 429 494 34,000  Level Memphis Center
07:55PM 34.6006 -90.3697 218° Southwest 429 494 34,000 180 Level Memphis Center
07:56PM 34.5086 -90.4528 217° Southwest 423 487 34,400 960 Climbing Memphis Center
07:57PM 34.4189 -90.5333 217° Southwest 423 487 36,000 780 Climbing Memphis Center
07:58PM 34.3311 -90.6111 216° Southwest 408 470 36,000  Level Memphis Center
07:59PM 34.2411 -90.6914 216° Southwest 403 464 36,000  Level Memphis Center
08:00PM 34.1492 -90.7739 217° Southwest 410 472 36,000  Level Memphis Center
08:01PM 34.0694 -90.8461 217° Southwest 410 472 36,000  Level Memphis Center
08:02PM 33.9794 -90.9283 217° Southwest 410 472 36,000  Level Memphis Center
08:03PM 33.8892 -91.0103 217° Southwest 416 479 36,000  Level Memphis Center
08:04PM 33.7908 -91.0969 216° Southwest 416 479 36,000  Level Memphis Center
08:05PM 33.6983 -91.1811 217° Southwest 416 479 36,000  Level Memphis Center
08:06PM 33.6081 -91.2600 216° Southwest 416 479 36,000  Level Memphis Center
08:07PM 33.5156 -91.3414 216° Southwest 416 479 36,000  Level Memphis Center
08:08PM 33.4231 -91.4225 216° Southwest 422 486 36,000  Level Memphis Center
08:09PM 33.3283 -91.5058 216° Southwest 415 478 36,000  Level Memphis Center
08:11PM 33.1261 -91.6889 217° Southwest 420 483 36,000  Level Houston Center
08:13PM 33.0292 -91.7664 214° Southwest 413 475 36,000  Level Houston Center
08:14PM 32.9397 -91.8469 217° Southwest 429 494 36,000  Level Fort Worth Center
08:15PM 32.8475 -91.9342 218° Southwest 423 487 36,000  Level Fort Worth Center
08:16PM 32.7661 -92.0256 223° Southwest 418 481 36,000  Level Fort Worth Center
08:17PM 32.6806 -92.1244 224° Southwest 428 493 36,000  Level Fort Worth Center
08:19PM 32.5103 -92.3564 229° Southwest 424 488 36,000  Level Houston Center
08:20PM 32.4400 -92.4672 233° Southwest 425 489 36,000  Level Houston Center
08:21PM 32.3694 -92.5792 233° Southwest 424 488 36,000  Level Houston Center
08:22PM 32.2956 -92.6972 234° Southwest 438 504 36,000  Level Houston Center
08:23PM 32.2219 -92.8111 233° Southwest 440 506 36,000  Level Houston Center
08:25PM 32.0308 -93.0269 224° Southwest 433 498 36,000  Level Houston Center
08:26PM 31.9392 -93.1203 221° Southwest 436 502 36,000  Level Houston Center
08:27PM 31.8464 -93.2128 220° Southwest 438 504 36,000  Level Houston Center
08:28PM 31.7531 -93.3047 220° Southwest 440 506 36,000  Level Houston Center
08:29PM 31.6633 -93.3933 220° Southwest 430 495 36,000  Level Houston Center
08:30PM 31.5767 -93.4775 220° Southwest 413 475 36,000  Level Houston Center
08:31PM 31.4731 -93.5781 220° Southwest 406 467 36,000 -60 Level Houston Center
08:32PM 31.3956 -93.6703 225° Southwest 414 476 35,900 -540 Descending Houston Center
08:33PM 31.3667 -93.8017 256° West 418 481 35,000 -960 Descending Houston Center
08:34PM 31.3511 -93.9367 262° West 418 481 34,000 -1,020 Descending Houston Center
08:35PM 31.2769 -94.0411 230° Southwest 417 480 33,000 -1,380 Descending Houston Center
08:36PM 31.1903 -94.1325 222° Southwest 419 482 31,200 -2,040 Descending Houston Center
08:37PM 31.0806 -94.2253 216° Southwest 407 468 28,800 -2,220 Descending Houston Center
08:38PM 30.9792 -94.2756 203° Southwest 400 460 26,700 -2,040 Descending Houston Center
08:39PM 30.8736 -94.2750 180° South 382 440 24,700 -1,560 Descending Houston Center
08:40PM 30.7781 -94.3200 202° Southwest 371 427 23,500 -960 Descending Houston Center
08:41PM 30.7328 -94.3500 210° Southwest 380 437 23,300 -540 Descending Houston Center
08:41PM 30.6856 -94.3831 211° Southwest 394 453 23,000 -540 Descending Houston Center
08:42PM 30.6461 -94.4100 210° Southwest 411 473 22,900 -1,020 Descending Houston Center
08:42PM 30.5889 -94.4508 212° Southwest 405 466 22,000 -1,800 Descending Houston Center
08:43PM 30.5461 -94.4814 212° Southwest 413 475 21,100 -2,280 Descending Houston Center
08:43PM 30.4917 -94.5253 215° Southwest 396 456 19,700 -2,280 Descending Houston Center
08:44PM 30.4656 -94.5622 231° Southwest 380 437 18,800 -2,340 Descending Houston Center
08:44PM 30.4269 -94.6228 234° Southwest 375 432 17,300 -2,100 Descending Houston Center
08:45PM 30.3675 -94.7167 234° Southwest 365 420 15,100 -2,400 Descending Houston Center
08:46PM 30.3450 -94.7497 232° Southwest 357 411 14,300 -1,680 Descending Houston Center
08:47PM 30.2831 -94.8472 234° Southwest 350 403 13,000 -840 Descending Houston Center
08:48PM 30.2397 -94.9144 233° Southwest 349 402 12,800 -720 Descending Houston Center
08:49PM 30.1822 -95.0036 233° Southwest 348 400 11,800 -960 Descending Houston Center
08:50PM 30.1139 -95.0806 224° Southwest 349 402 10,900 -900 Descending Houston Center
08:51PM 30.0203 -95.1211 201° Southwest 360 414 10,000 -480 Descending Houston Center
08:52PM 29.9278 -95.1603 200° South 357 411 10,000 -240 Level Houston Center
08:53PM 29.8397 -95.1981 200° South 345 397 9,600 -900 Descending Houston Center
08:54PM 29.7606 -95.2308 200° South 313 360 8,200 -1,560 Descending Houston Center
08:55PM 29.6614 -95.2364 183° South 300 345 6,500 -1,080 Descending Houston Center
08:56PM 29.5850 -95.2386 181° South 291 335 6,000 -660 Descending Houston Center
08:57PM 29.5297 -95.2739 209° Southwest 250 288 5,200 -1,260 Descending Houston Center
08:58PM 29.4828 -95.3269 225° Southwest 241 277 3,500 -1,500 Descending Houston Center
08:59PM 29.5206 -95.3639 320° Northwest 230 265 2,200 -1,020 Descending Houston Center
09:00PM 29.5853 -95.3383 19° North 160 184 1,300 -780 Descending Houston Center
09:01PM 29.6133 -95.3147 36° Northeast 165 190 700 -720 Descending Houston Center